Connexion S'enregistrer

Connexion à votre compte

Identifiant
Mot de passe
Maintenir la connexion active sur ce site

Créer un compte

Pour valider ce formulaire, vous devez remplir tous les champs.
Nom
Identifiant
Mot de passe
Répétez le mot de passe
Adresse e-mail
Répétez l'adresse e-mail

Veuillez saisir l'adresse e-mail associée à votre compte d'utilisateur. Un code de vérification vous sera adressé. Lorsque vous le recevrez, vous pourrez choisir un nouveau mot de passe

Nous contacter

 Téléphone : +33 (0)4 79 54 41 81

Coordonnées détaillées et accès : cliquez ici

 
LFLB °C
    Ferienhaus Ostsee
[source: ADDS]
METAR
LFLB 201730Z AUTO 01006KT CAVOK 09/01 Q1028 NOSIG =
TAF LFLB 201700Z 2018/2118 36008KT CAVOK
TAF
TAF LFLB 201700Z 2018/2118 36008KT CAVOK =
SR / SS: 05:39 / 17:48 UTC (Lever/Coucher du soleil le 2019-03-20)
JSN Boot template designed by JoomlaShine.com